Time;durP1;ratioP1;P1;durP2;ratioP2;P2;SDS_P1;SDS_P2;PMS_P1;PMS_P2;Temp;Humidity;BMP_temperature;BMP_pressure;BME280_temperature;BME280_humidity;BME280_pressure;Samples;Min_cycle;Max_cycle;Signal;HPM_P1;HPM_P2
2021/01/14 00:00:09;;;;;;;5.55;2.25;;;0.90;99.90;;;;;;5032505;28;20076;-44
2021/01/14 00:02:35;;;;;;;2.95;2.10;;;0.90;99.90;;;;;;5031127;28;20028;-45
2021/01/14 00:05:01;;;;;;;4.28;2.08;;;0.90;99.90;;;;;;5031513;28;20030;-48
2021/01/14 00:07:26;;;;;;;5.03;2.05;;;0.90;99.90;;;;;;5030533;28;20032;-44
2021/01/14 00:09:52;;;;;;;5.60;2.13;;;0.90;99.90;;;;;;5032016;28;20025;-45
2021/01/14 00:12:17;;;;;;;8.55;2.20;;;0.90;99.90;;;;;;5031805;28;20474;-46
2021/01/14 00:14:43;;;;;;;12.00;2.55;;;1.00;99.90;;;;;;5030237;28;20090;-46
2021/01/14 00:17:08;;;;;;;5.22;2.63;;;1.00;99.90;;;;;;5031677;28;20040;-46
2021/01/14 00:19:34;;;;;;;5.45;2.60;;;1.00;99.90;;;;;;5031530;28;20552;-47
2021/01/14 00:22:00;;;;;;;4.57;2.03;;;1.00;99.90;;;;;;5031744;28;20029;-47
2021/01/14 00:24:26;;;;;;;5.13;2.20;;;1.00;99.90;;;;;;5031325;28;20205;-45
2021/01/14 00:26:51;;;;;;;6.95;2.05;;;1.00;99.90;;;;;;5030747;28;20235;-48
2021/01/14 00:29:17;;;;;;;4.88;2.13;;;1.00;99.90;;;;;;5031718;28;20084;-45
2021/01/14 00:31:42;;;;;;;4.22;1.90;;;1.00;99.90;;;;;;5031550;28;20292;-45
2021/01/14 00:34:08;;;;;;;3.20;2.28;;;1.00;99.90;;;;;;5031567;28;20028;-45
2021/01/14 00:39:27;;;;;;;8.20;3.47;;;1.00;99.90;;;;;;5031883;28;20426;-45
2021/01/14 00:41:53;;;;;;;5.25;2.22;;;1.00;99.90;;;;;;5031403;28;20124;-46
2021/01/14 00:44:19;;;;;;;5.43;2.33;;;1.10;99.90;;;;;;5030539;28;20025;-44
2021/01/14 00:46:45;;;;;;;7.57;2.20;;;1.00;99.90;;;;;;5030597;28;20253;-46
2021/01/14 00:49:11;;;;;;;4.93;2.30;;;1.00;99.90;;;;;;5031084;28;20498;-46
2021/01/14 00:51:37;;;;;;;4.93;2.25;;;1.00;99.90;;;;;;5031316;28;20276;-44
2021/01/14 00:54:07;;;;;;;2.03;1.83;;;1.10;99.90;;;;;;5031127;28;20030;-48
2021/01/14 00:56:34;;;;;;;5.75;2.63;;;1.00;99.90;;;;;;5029046;28;20353;-44
2021/01/14 00:58:59;;;;;;;7.70;2.75;;;1.00;99.90;;;;;;5031100;28;20030;-44
2021/01/14 01:01:26;;;;;;;5.97;2.40;;;1.00;99.90;;;;;;5030690;28;20371;-48
2021/01/14 01:03:52;;;;;;;6.32;2.17;;;1.10;99.90;;;;;;5029850;28;20021;-46
2021/01/14 01:06:21;;;;;;;4.70;2.60;;;1.10;99.90;;;;;;5030206;28;20064;-44
2021/01/14 01:08:51;;;;;;;4.95;2.53;;;1.10;99.90;;;;;;5030833;28;20038;-45
2021/01/14 01:11:26;;;;;;;6.93;2.47;;;1.10;99.90;;;;;;5030396;28;20025;-44
2021/01/14 01:13:52;;;;;;;6.88;2.50;;;1.10;99.90;;;;;;5029477;28;20025;-45
2021/01/14 01:16:18;;;;;;;11.65;3.05;;;1.10;99.90;;;;;;5030218;28;20100;-48
2021/01/14 01:18:45;;;;;;;5.13;1.98;;;1.10;99.90;;;;;;5030671;28;20041;-47
2021/01/14 01:21:10;;;;;;;15.07;2.10;;;1.10;99.90;;;;;;5030500;28;20057;-48
2021/01/14 01:23:36;;;;;;;5.20;2.00;;;1.10;99.90;;;;;;5030530;28;20029;-45
2021/01/14 01:26:03;;;;;;;5.32;2.15;;;1.20;99.90;;;;;;5028811;28;20522;-44
2021/01/14 01:28:28;;;;;;;6.45;1.98;;;1.20;99.90;;;;;;5030473;28;20029;-45
2021/01/14 01:30:54;;;;;;;5.97;2.17;;;1.20;99.90;;;;;;5030405;28;20356;-45
2021/01/14 01:33:19;;;;;;;4.30;2.72;;;1.20;99.90;;;;;;5028966;28;20121;-45
2021/01/14 01:35:51;;;;;;;4.35;2.13;;;1.20;99.90;;;;;;5029660;28;20072;-46
2021/01/14 01:38:17;;;;;;;2.92;2.30;;;1.20;99.90;;;;;;5030271;28;20487;-45
2021/01/14 01:40:43;;;;;;;7.03;2.38;;;1.20;99.90;;;;;;5028943;28;20068;-44
2021/01/14 01:43:08;;;;;;;10.50;3.28;;;1.20;99.90;;;;;;5029957;28;20271;-48
2021/01/14 01:45:34;;;;;;;5.93;2.40;;;1.20;99.90;;;;;;5029526;28;20021;-48
2021/01/14 01:48:00;;;;;;;3.03;2.38;;;1.20;99.90;;;;;;5030185;28;20026;-46
2021/01/14 01:50:26;;;;;;;5.90;2.25;;;1.20;99.90;;;;;;5029962;28;20392;-47
2021/01/14 01:52:53;;;;;;;6.80;2.00;;;1.20;99.90;;;;;;5029185;28;20022;-46
2021/01/14 01:55:19;;;;;;;3.85;2.13;;;1.20;99.90;;;;;;5029103;28;20029;-47
2021/01/14 01:57:44;;;;;;;6.78;2.05;;;1.20;99.90;;;;;;5030207;28;20026;-47
2021/01/14 02:00:10;;;;;;;6.70;2.17;;;1.20;99.90;;;;;;5030113;28;20487;-47
2021/01/14 02:02:36;;;;;;;9.48;2.30;;;1.20;99.90;;;;;;5030165;28;20036;-47
2021/01/14 02:05:01;;;;;;;4.97;2.20;;;1.20;99.90;;;;;;5028330;28;20017;-47
2021/01/14 02:07:50;;;;;;;3.80;2.08;;;1.20;99.90;;;;;;5029963;28;20022;-46
2021/01/14 02:10:27;;;;;;;10.30;2.88;;;1.20;99.90;;;;;;5029693;28;20482;-48
2021/01/14 02:13:17;;;;;;;4.68;2.10;;;1.30;99.90;;;;;;5028401;28;20083;-46
2021/01/14 02:15:43;;;;;;;5.22;2.28;;;1.30;99.90;;;;;;5028075;28;20021;-48
2021/01/14 02:18:08;;;;;;;4.13;2.45;;;1.30;99.90;;;;;;5029503;28;20100;-49
2021/01/14 02:20:36;;;;;;;13.57;2.70;;;1.30;99.90;;;;;;5029259;28;20025;-46
2021/01/14 02:23:18;;;;;;;7.22;2.58;;;1.20;99.90;;;;;;5029161;28;20021;-51
2021/01/14 02:26:16;;;;;;;3.65;2.30;;;1.20;99.90;;;;;;5027160;28;20021;-48
2021/01/14 02:28:44;;;;;;;7.72;2.70;;;1.30;99.90;;;;;;5029443;28;20075;-46
2021/01/14 02:31:17;;;;;;;4.18;2.20;;;1.30;99.90;;;;;;5027767;28;20442;-47
2021/01/14 02:33:43;;;;;;;7.53;3.20;;;1.30;99.90;;;;;;5029421;28;20052;-47
2021/01/14 02:36:09;;;;;;;4.28;2.05;;;1.30;99.90;;;;;;5027681;28;20033;-50
2021/01/14 02:38:37;;;;;;;4.72;2.40;;;1.30;99.90;;;;;;5028548;28;20029;-47
2021/01/14 02:41:03;;;;;;;5.30;2.05;;;1.30;99.90;;;;;;5028019;28;20033;-46
2021/01/14 02:43:28;;;;;;;9.95;2.17;;;1.30;99.90;;;;;;5028133;28;20034;-46
2021/01/14 02:45:54;;;;;;;9.68;2.50;;;1.30;99.90;;;;;;5025232;28;20041;-46
2021/01/14 02:48:29;;;;;;;5.55;2.30;;;1.30;99.90;;;;;;5027726;28;20029;-48
2021/01/14 02:50:59;;;;;;;6.25;2.22;;;1.30;99.90;;;;;;5026545;28;20101;-50
2021/01/14 02:53:26;;;;;;;4.50;2.45;;;1.30;99.90;;;;;;5028717;28;20029;-50
2021/01/14 02:55:53;;;;;;;9.43;2.30;;;1.40;99.90;;;;;;5027140;28;20029;-46
2021/01/14 02:58:18;;;;;;;5.45;2.53;;;1.40;99.90;;;;;;5028465;28;20052;-46
2021/01/14 03:00:44;;;;;;;6.32;2.17;;;1.40;99.90;;;;;;5028287;28;20486;-46
2021/01/14 03:03:09;;;;;;;5.03;2.33;;;1.30;99.90;;;;;;5028316;28;20153;-47
2021/01/14 03:05:35;;;;;;;4.35;2.17;;;1.30;99.90;;;;;;5026718;28;20072;-46
2021/01/14 03:08:01;;;;;;;4.20;2.70;;;1.40;99.90;;;;;;5028211;28;20049;-46
2021/01/14 03:10:26;;;;;;;7.68;2.50;;;1.40;99.90;;;;;;5028383;28;20455;-47
2021/01/14 03:12:52;;;;;;;4.43;2.30;;;1.40;99.90;;;;;;5028061;28;20204;-47
2021/01/14 03:15:18;;;;;;;4.88;2.58;;;1.40;99.90;;;;;;5027493;28;20029;-50
2021/01/14 03:17:44;;;;;;;5.35;3.83;;;1.50;99.90;;;;;;5027540;28;20299;-47
2021/01/14 03:20:10;;;;;;;4.20;1.95;;;1.50;99.90;;;;;;5028489;28;20029;-47
2021/01/14 03:22:40;;;;;;;7.25;2.40;;;1.50;99.90;;;;;;5028539;28;20480;-47
2021/01/14 03:25:08;;;;;;;5.85;2.53;;;1.40;99.90;;;;;;5028012;28;20017;-46
2021/01/14 03:27:41;;;;;;;5.40;3.42;;;1.40;99.90;;;;;;5026910;28;20033;-48
2021/01/14 03:30:08;;;;;;;6.15;2.45;;;1.40;99.90;;;;;;5028505;28;20025;-47
2021/01/14 03:32:34;;;;;;;3.60;2.40;;;1.40;99.90;;;;;;5028308;28;20032;-47
2021/01/14 03:35:00;;;;;;;4.13;2.05;;;1.40;99.90;;;;;;5027815;28;20045;-47
2021/01/14 03:37:25;;;;;;;3.83;2.08;;;1.40;99.90;;;;;;5028169;28;20029;-47
2021/01/14 03:39:51;;;;;;;4.50;2.28;;;1.50;99.90;;;;;;5027936;28;20033;-46
2021/01/14 03:42:20;;;;;;;4.70;3.20;;;1.40;99.90;;;;;;5027932;28;20022;-45
2021/01/14 03:44:47;;;;;;;6.72;2.60;;;1.40;99.90;;;;;;5027652;28;20528;-46
2021/01/14 03:47:13;;;;;;;4.70;2.55;;;1.40;99.90;;;;;;5026989;28;20214;-49
2021/01/14 03:49:39;;;;;;;3.72;2.20;;;1.40;99.90;;;;;;5027739;28;20371;-47
2021/01/14 03:52:04;;;;;;;4.82;2.40;;;1.40;99.90;;;;;;5027556;28;21125;-48
2021/01/14 03:54:30;;;;;;;3.97;2.97;;;1.40;99.90;;;;;;5027218;28;20032;-45
2021/01/14 03:56:55;;;;;;;6.00;3.03;;;1.40;99.90;;;;;;5027310;28;20398;-47
2021/01/14 03:59:21;;;;;;;3.97;2.35;;;1.40;99.90;;;;;;5027994;28;20033;-46
2021/01/14 04:01:46;;;;;;;7.07;2.78;;;1.40;99.90;;;;;;5028523;28;20498;-46
2021/01/14 04:04:12;;;;;;;8.68;3.45;;;1.40;99.90;;;;;;5026596;28;20029;-47
2021/01/14 04:06:38;;;;;;;3.22;2.50;;;1.30;99.90;;;;;;5027462;28;20024;-47
2021/01/14 04:09:05;;;;;;;6.63;3.33;;;1.30;99.90;;;;;;5028072;28;20467;-47
2021/01/14 04:11:31;;;;;;;5.38;2.33;;;1.30;99.90;;;;;;5028097;28;20071;-48
2021/01/14 04:13:57;;;;;;;4.35;2.75;;;1.30;99.90;;;;;;5028037;28;20030;-47
2021/01/14 04:16:23;;;;;;;6.65;2.97;;;1.30;99.90;;;;;;5025408;28;20037;-47
2021/01/14 04:18:48;;;;;;;3.53;2.30;;;1.30;99.90;;;;;;5027529;28;20042;-47
2021/01/14 04:21:14;;;;;;;4.20;2.90;;;1.40;99.90;;;;;;5027639;28;20028;-48
2021/01/14 04:23:42;;;;;;;3.78;2.47;;;1.40;99.90;;;;;;5027844;28;20021;-51
2021/01/14 04:26:08;;;;;;;4.50;2.78;;;1.40;99.90;;;;;;5026977;28;20010;-49
2021/01/14 04:28:34;;;;;;;3.53;2.47;;;1.40;99.90;;;;;;5026960;28;20068;-49
2021/01/14 04:30:59;;;;;;;5.78;2.75;;;1.30;99.90;;;;;;5027515;28;20052;-47
2021/01/14 04:33:25;;;;;;;5.45;3.15;;;1.40;99.90;;;;;;5027050;28;20033;-47
2021/01/14 04:35:52;;;;;;;4.60;2.80;;;1.40;99.90;;;;;;5026906;28;20036;-50
2021/01/14 04:38:20;;;;;;;3.50;2.67;;;1.40;99.90;;;;;;5029510;28;20029;-48
2021/01/14 04:40:46;;;;;;;3.83;2.63;;;1.40;99.90;;;;;;5030924;28;20029;-47
2021/01/14 04:43:13;;;;;;;5.47;2.65;;;1.40;99.90;;;;;;5030228;28;20021;-47
2021/01/14 04:45:43;;;;;;;4.78;3.28;;;1.40;99.90;;;;;;5030667;28;20026;-48
2021/01/14 04:48:10;;;;;;;6.00;3.50;;;1.40;99.90;;;;;;5030413;28;20029;-48
2021/01/14 04:50:37;;;;;;;5.00;2.88;;;1.40;99.90;;;;;;5031143;28;20036;-47
2021/01/14 04:53:04;;;;;;;6.03;3.15;;;1.40;99.90;;;;;;5031300;28;20034;-47
2021/01/14 04:55:42;;;;;;;6.00;3.72;;;1.40;99.90;;;;;;5029659;28;20025;-46
2021/01/14 04:58:13;;;;;;;5.15;3.45;;;1.40;99.90;;;;;;5031045;28;20041;-46
2021/01/14 05:00:45;;;;;;;7.03;3.33;;;1.40;99.90;;;;;;5030723;28;20028;-47
2021/01/14 05:03:19;;;;;;;6.95;3.70;;;1.40;99.90;;;;;;5028323;28;20095;-48
2021/01/14 05:05:46;;;;;;;6.10;3.70;;;1.40;99.90;;;;;;5029683;28;20485;-47
2021/01/14 05:08:14;;;;;;;15.20;3.85;;;1.40;99.90;;;;;;5031059;28;20026;-50
2021/01/14 05:10:41;;;;;;;5.97;3.97;;;1.40;99.90;;;;;;5030918;28;20018;-50
2021/01/14 05:13:08;;;;;;;8.30;4.30;;;1.40;99.90;;;;;;5030601;28;20029;-51
2021/01/14 05:15:35;;;;;;;9.13;4.40;;;1.40;99.90;;;;;;5028758;28;20651;-47
2021/01/14 05:18:00;;;;;;;8.55;4.05;;;1.50;99.90;;;;;;5029917;28;20041;-48
2021/01/14 05:20:26;;;;;;;7.93;4.88;;;1.50;99.90;;;;;;5030575;28;20478;-46
2021/01/14 05:23:03;;;;;;;8.82;4.80;;;1.50;99.90;;;;;;5030825;28;20033;-48
2021/01/14 05:25:30;;;;;;;8.65;4.30;;;1.60;99.90;;;;;;5029995;28;20498;-48
2021/01/14 05:28:16;;;;;;;7.43;4.25;;;1.60;99.90;;;;;;5029751;28;20309;-48
2021/01/14 05:30:42;;;;;;;8.00;4.75;;;1.60;99.90;;;;;;5030634;28;20068;-47
2021/01/14 05:33:18;;;;;;;7.75;4.60;;;1.60;99.90;;;;;;5030610;28;20184;-46
2021/01/14 05:35:48;;;;;;;8.25;4.60;;;1.60;99.90;;;;;;5028981;28;20029;-47
2021/01/14 05:38:21;;;;;;;18.02;5.85;;;1.60;99.90;;;;;;5030202;28;20022;-47
2021/01/14 05:41:10;;;;;;;10.55;5.03;;;1.60;99.90;;;;;;5030062;28;20025;-47
2021/01/14 05:43:32;;;;;;;11.30;6.30;;;1.70;99.90;;;;;;5029065;28;20033;-46
2021/01/14 05:46:15;;;;;;;9.57;5.38;;;1.70;99.90;;;;;;5029338;28;20036;-50
2021/01/14 05:48:41;;;;;;;11.05;4.65;;;1.70;99.90;;;;;;5009940;28;20038;-50
2021/01/14 05:51:15;;;;;;;9.70;5.05;;;1.70;99.90;;;;;;5010017;28;20025;-49
2021/01/14 05:53:57;;;;;;;12.60;5.38;;;1.70;99.90;;;;;;5014069;28;20084;-48
2021/01/14 05:56:43;;;;;;;9.07;5.43;;;1.70;99.90;;;;;;5028432;28;20548;-46
2021/01/14 05:59:11;;;;;;;8.93;5.10;;;1.70;99.90;;;;;;5029532;28;20053;-51
2021/01/14 06:01:38;;;;;;;9.60;5.60;;;1.70;99.90;;;;;;5030156;28;20025;-50
2021/01/14 06:04:24;;;;;;;9.95;4.88;;;1.70;99.90;;;;;;5029998;28;20375;-50
2021/01/14 06:06:51;;;;;;;13.38;5.65;;;1.70;99.90;;;;;;5029058;28;20097;-49
2021/01/14 06:09:19;;;;;;;8.82;4.97;;;1.70;99.90;;;;;;5029376;28;20084;-50
2021/01/14 06:11:45;;;;;;;8.82;4.82;;;1.70;99.90;;;;;;5029634;28;20088;-48
2021/01/14 06:14:31;;;;;;;12.07;5.65;;;1.70;99.90;;;;;;5029559;28;20026;-51
2021/01/14 06:17:07;;;;;;;11.18;5.70;;;1.70;99.90;;;;;;5028554;28;20060;-48
2021/01/14 06:19:33;;;;;;;10.77;4.88;;;1.70;99.90;;;;;;5029150;28;20128;-51
2021/01/14 06:22:00;;;;;;;10.60;6.22;;;1.70;99.90;;;;;;5028790;28;20052;-50
2021/01/14 06:24:31;;;;;;;11.77;5.72;;;1.70;99.90;;;;;;5029123;28;20025;-49
2021/01/14 06:27:06;;;;;;;9.70;5.10;;;1.70;99.90;;;;;;5029376;28;20018;-49
2021/01/14 06:29:39;;;;;;;12.85;6.13;;;1.70;99.90;;;;;;5029472;28;20382;-48
2021/01/14 06:32:19;;;;;;;12.73;6.82;;;1.70;99.90;;;;;;5029462;28;20124;-47
2021/01/14 06:34:46;;;;;;;9.70;5.53;;;1.70;99.90;;;;;;5028054;28;20030;-49
2021/01/14 06:37:26;;;;;;;10.23;5.90;;;1.70;99.90;;;;;;5029125;28;20033;-47
2021/01/14 06:39:56;;;;;;;10.45;5.80;;;1.70;99.90;;;;;;5029512;28;20029;-47
2021/01/14 06:42:22;;;;;;;;;;;1.70;99.90;;;;;;5028619;28;20029;-49
2021/01/14 06:44:55;;;;;;;10.13;6.15;;;1.70;99.90;;;;;;5028307;28;19935;-48
2021/01/14 06:47:32;;;;;;;13.20;6.25;;;1.70;99.90;;;;;;5029438;28;20021;-47
2021/01/14 06:50:18;;;;;;;12.43;6.40;;;1.70;99.90;;;;;;5028533;28;20040;-48
2021/01/14 06:53:03;;;;;;;15.50;6.75;;;1.70;99.90;;;;;;5029405;28;20030;-48
2021/01/14 06:55:36;;;;;;;14.75;6.95;;;1.70;99.90;;;;;;5027712;28;20030;-49
2021/01/14 06:58:07;;;;;;;17.13;6.88;;;1.70;99.90;;;;;;5028823;28;20120;-49
2021/01/14 07:00:40;;;;;;;12.90;6.97;;;1.70;99.90;;;;;;5028256;28;20455;-50
2021/01/14 07:03:24;;;;;;;16.52;6.97;;;1.80;99.90;;;;;;5028684;28;20230;-48
2021/01/14 07:05:55;;;;;;;16.52;7.25;;;1.70;99.90;;;;;;5027478;28;20087;-48
2021/01/14 07:08:41;;;;;;;18.02;7.25;;;1.70;99.90;;;;;;5028187;28;21013;-47
2021/01/14 07:11:11;;;;;;;21.80;7.13;;;1.70;99.90;;;;;;5027203;28;20019;-50
2021/01/14 07:13:40;;;;;;;13.63;8.07;;;1.70;99.90;;;;;;5026075;28;20522;-49
2021/01/14 07:16:07;;;;;;;13.15;7.55;;;1.70;99.90;;;;;;5026634;28;20116;-50
2021/01/14 07:18:35;;;;;;;15.07;8.00;;;1.70;99.90;;;;;;5027490;28;20033;-50
2021/01/14 07:21:07;;;;;;;13.13;7.68;;;1.80;99.90;;;;;;5028169;28;20395;-48
2021/01/14 07:23:39;;;;;;;17.98;7.60;;;1.70;99.90;;;;;;5028037;28;20544;-48
2021/01/14 07:26:05;;;;;;;15.18;7.63;;;1.80;99.90;;;;;;5026954;28;20394;-48
2021/01/14 07:28:35;;;;;;;14.15;7.93;;;1.70;99.90;;;;;;5028540;28;20349;-50
2021/01/14 07:31:27;;;;;;;17.23;7.28;;;1.80;99.90;;;;;;5026869;28;20560;-48
2021/01/14 07:33:55;;;;;;;15.90;8.10;;;1.70;99.90;;;;;;5028120;28;20037;-49
2021/01/14 07:36:25;;;;;;;19.52;7.75;;;1.80;99.90;;;;;;5027900;28;20029;-49
2021/01/14 07:38:52;;;;;;;18.45;8.35;;;1.80;99.90;;;;;;5028634;28;20104;-48
2021/01/14 07:41:18;;;;;;;16.48;9.05;;;1.80;99.90;;;;;;5028541;28;20025;-48
2021/01/14 07:43:45;;;;;;;13.05;8.50;;;1.80;99.90;;;;;;5026974;28;20383;-50
2021/01/14 07:46:20;;;;;;;16.00;8.48;;;1.80;99.90;;;;;;5019151;28;20030;-47
2021/01/14 07:48:47;;;;;;;14.30;8.38;;;1.80;99.90;;;;;;5025400;28;20014;-47
2021/01/14 07:51:14;;;;;;;13.43;7.85;;;1.80;99.90;;;;;;5026579;28;20061;-48
2021/01/14 07:53:39;;;;;;;12.15;7.55;;;1.80;99.90;;;;;;5024649;28;20064;-48
2021/01/14 07:56:24;;;;;;;15.45;8.48;;;1.70;99.90;;;;;;5025874;28;20053;-49
2021/01/14 07:58:54;;;;;;;13.82;7.38;;;1.70;99.90;;;;;;5025253;28;20570;-48
2021/01/14 08:01:20;;;;;;;15.52;7.90;;;1.70;99.90;;;;;;5026501;28;20471;-49
2021/01/14 08:03:45;;;;;;;16.63;7.88;;;1.70;99.90;;;;;;5027082;28;20056;-48
2021/01/14 08:06:35;;;;;;;18.77;8.52;;;1.70;99.90;;;;;;5026729;28;20021;-48
2021/01/14 08:09:01;;;;;;;17.15;9.00;;;1.80;99.90;;;;;;5027237;28;20021;-50
2021/01/14 08:11:54;;;;;;;16.52;8.32;;;1.70;99.90;;;;;;5027073;28;20100;-47
2021/01/14 08:14:21;;;;;;;17.60;8.30;;;1.70;99.90;;;;;;5030638;28;20083;-48
2021/01/14 08:16:51;;;;;;;16.80;8.68;;;1.80;99.90;;;;;;5031467;28;20116;-47
2021/01/14 08:19:29;;;;;;;13.10;9.40;;;1.80;99.90;;;;;;5030088;28;20401;-47
2021/01/14 08:21:57;;;;;;;16.60;8.48;;;1.80;99.90;;;;;;5031023;28;20022;-50
2021/01/14 08:25:02;;;;;;;13.15;7.68;;;1.80;99.90;;;;;;5030920;28;20491;-49
2021/01/14 08:27:37;;;;;;;19.48;8.63;;;1.90;99.90;;;;;;5031195;28;20015;-50
2021/01/14 08:30:15;;;;;;;16.85;9.90;;;1.90;99.90;;;;;;5031591;28;20162;-48
2021/01/14 08:32:48;;;;;;;16.02;8.80;;;1.90;99.90;;;;;;5031442;28;20026;-50
2021/01/14 08:35:16;;;;;;;15.18;7.85;;;1.90;99.90;;;;;;5030425;28;20024;-50
2021/01/14 08:37:48;;;;;;;18.15;9.70;;;1.90;99.90;;;;;;5030942;28;20051;-50
2021/01/14 08:40:18;;;;;;;16.38;8.48;;;2.00;99.90;;;;;;5031189;28;20049;-48
2021/01/14 08:42:46;;;;;;;22.23;9.65;;;2.00;99.90;;;;;;5030621;28;20067;-50
2021/01/14 08:45:21;;;;;;;15.05;8.45;;;1.90;99.90;;;;;;5028378;28;20033;-48
2021/01/14 08:48:11;;;;;;;16.80;9.25;;;1.90;99.90;;;;;;5019638;28;20446;-49
2021/01/14 08:50:41;;;;;;;20.30;9.00;;;2.00;99.90;;;;;;5026776;28;20104;-48
2021/01/14 08:53:12;;;;;;;18.10;9.30;;;2.00;99.90;;;;;;5028839;28;20464;-48
2021/01/14 08:55:39;;;;;;;23.02;9.35;;;1.90;99.90;;;;;;5028986;28;20033;-48
2021/01/14 08:58:07;;;;;;;15.77;9.00;;;2.00;99.90;;;;;;5028799;28;20029;-48
2021/01/14 09:00:34;;;;;;;15.43;8.13;;;2.00;99.90;;;;;;5030337;28;20040;-48
2021/01/14 09:03:00;;;;;;;15.55;8.93;;;2.00;99.90;;;;;;5030265;28;20025;-48
2021/01/14 09:05:27;;;;;;;17.10;9.68;;;2.00;99.90;;;;;;5029325;28;20041;-47
2021/01/14 09:08:04;;;;;;;14.90;8.52;;;2.00;99.90;;;;;;5030107;28;20451;-50
2021/01/14 09:10:47;;;;;;;15.48;8.82;;;2.00;99.90;;;;;;5030520;28;20108;-50
2021/01/14 09:13:22;;;;;;;19.48;8.63;;;2.00;99.90;;;;;;5030951;28;20025;-48
2021/01/14 09:15:48;;;;;;;13.45;8.15;;;2.00;99.90;;;;;;5030129;28;20025;-50
2021/01/14 09:18:15;;;;;;;15.57;8.55;;;2.10;99.90;;;;;;5030508;28;20053;-49
2021/01/14 09:20:41;;;;;;;15.52;9.10;;;2.10;99.90;;;;;;5030019;28;20048;-50
2021/01/14 09:23:32;;;;;;;13.52;8.55;;;2.10;99.90;;;;;;5030410;28;20479;-49
2021/01/14 09:25:58;;;;;;;23.08;8.57;;;2.00;99.90;;;;;;5029764;28;20025;-47
2021/01/14 09:28:25;;;;;;;15.68;8.80;;;2.10;99.90;;;;;;5030809;28;20060;-50
2021/01/14 09:30:56;;;;;;;18.88;9.18;;;2.10;99.90;;;;;;5030699;28;20025;-48
2021/01/14 09:33:26;;;;;;;14.02;8.23;;;2.10;99.90;;;;;;5028661;28;20049;-48
2021/01/14 09:36:04;;;;;;;15.93;8.77;;;2.10;99.90;;;;;;5029039;28;20033;-49
2021/01/14 09:38:35;;;;;;;17.83;9.32;;;2.20;99.90;;;;;;5030164;28;20422;-50
2021/01/14 09:41:02;;;;;;;20.80;9.48;;;2.20;99.90;;;;;;5030209;28;20065;-50
2021/01/14 09:43:28;;;;;;;15.85;9.00;;;2.20;99.90;;;;;;5030020;28;20057;-47
2021/01/14 09:45:56;;;;;;;13.57;8.55;;;2.30;99.90;;;;;;5026791;28;20053;-50
2021/01/14 09:48:23;;;;;;;18.15;8.77;;;2.30;99.90;;;;;;5024438;28;20037;-50
2021/01/14 09:50:50;;;;;;;15.05;8.75;;;2.30;99.90;;;;;;5028933;28;20069;-49
2021/01/14 09:53:16;;;;;;;15.18;9.40;;;2.30;99.90;;;;;;5029419;28;20103;-50
2021/01/14 09:55:42;;;;;;;16.65;9.02;;;2.40;99.90;;;;;;5028871;28;20057;-49
2021/01/14 09:58:18;;;;;;;17.88;9.38;;;2.30;99.90;;;;;;5029176;28;20026;-50
2021/01/14 10:00:49;;;;;;;16.10;9.55;;;2.40;99.90;;;;;;5011035;28;20024;-50
2021/01/14 10:03:17;;;;;;;16.23;8.77;;;2.40;99.90;;;;;;5027466;28;20514;-51
2021/01/14 10:05:45;;;;;;;15.57;8.90;;;2.50;99.90;;;;;;5028618;28;20112;-51
2021/01/14 10:08:16;;;;;;;16.73;8.93;;;2.50;99.90;;;;;;5029140;28;20025;-49
2021/01/14 10:10:42;;;;;;;20.27;9.57;;;2.50;99.90;;;;;;5029257;28;20509;-51
2021/01/14 10:13:17;;;;;;;16.48;8.73;;;2.60;99.90;;;;;;5029174;28;20037;-51
2021/01/14 10:15:44;;;;;;;16.27;8.65;;;2.60;99.90;;;;;;5027474;28;20063;-50
2021/01/14 10:18:22;;;;;;;13.57;7.95;;;2.70;99.90;;;;;;5029033;28;20133;-51
2021/01/14 10:20:48;;;;;;;20.70;9.35;;;2.70;99.90;;;;;;5028658;28;20080;-51
2021/01/14 10:23:24;;;;;;;13.15;8.05;;;2.70;99.90;;;;;;5028514;28;20034;-50
2021/01/14 10:25:50;;;;;;;13.90;8.35;;;2.70;99.90;;;;;;5027904;28;20103;-50
2021/01/14 10:28:15;;;;;;;20.15;9.05;;;2.80;99.90;;;;;;5028703;28;20053;-50
2021/01/14 10:30:41;;;;;;;14.02;8.55;;;2.70;99.90;;;;;;5028988;28;20021;-51
2021/01/14 10:33:07;;;;;;;13.25;7.97;;;2.70;99.90;;;;;;5028455;28;20696;-49
2021/01/14 10:35:35;;;;;;;17.30;8.68;;;2.70;99.90;;;;;;5027861;28;20033;-50
2021/01/14 10:38:08;;;;;;;14.70;8.45;;;2.70;99.90;;;;;;5028588;28;20069;-53
2021/01/14 10:40:56;;;;;;;14.98;7.72;;;2.70;99.90;;;;;;5028963;28;20045;-50
2021/01/14 10:43:29;;;;;;;16.60;8.52;;;2.60;99.90;;;;;;5028259;28;20491;-50
2021/01/14 10:45:56;;;;;;;14.07;8.70;;;2.60;99.90;;;;;;5027740;28;20425;-50
2021/01/14 10:48:22;;;;;;;18.55;8.95;;;2.60;99.90;;;;;;5028545;28;20490;-50
2021/01/14 10:50:52;;;;;;;18.35;9.82;;;2.50;99.90;;;;;;5028723;28;20033;-51
2021/01/14 10:53:53;;;;;;;19.33;9.60;;;2.50;99.90;;;;;;5028317;28;20030;-51
2021/01/14 10:56:20;;;;;;;13.90;7.85;;;2.50;99.90;;;;;;5023879;28;20029;-50
2021/01/14 10:58:54;;;;;;;16.50;8.40;;;2.50;99.90;;;;;;5027982;28;20497;-50
2021/01/14 11:01:21;;;;;;;17.60;8.93;;;2.60;99.90;;;;;;5026650;28;20379;-51
2021/01/14 11:03:49;;;;;;;12.52;8.57;;;2.60;99.90;;;;;;5026440;28;20044;-51
2021/01/14 11:06:36;;;;;;;14.02;7.85;;;2.60;99.90;;;;;;5026440;28;20009;-51
2021/01/14 11:09:10;;;;;;;15.20;8.27;;;2.70;99.90;;;;;;5026689;28;20024;-51
2021/01/14 11:11:36;;;;;;;12.40;7.00;;;2.70;99.90;;;;;;5028290;28;20061;-49
2021/01/14 11:14:02;;;;;;;13.70;7.78;;;2.70;99.90;;;;;;5028636;28;20029;-51
2021/01/14 11:16:29;;;;;;;11.98;7.78;;;2.80;99.90;;;;;;5028468;28;20032;-50
2021/01/14 11:18:57;;;;;;;11.88;7.20;;;2.80;99.90;;;;;;5028851;28;20045;-49
2021/01/14 11:21:30;;;;;;;11.32;6.90;;;2.90;99.90;;;;;;5028614;28;20236;-51
2021/01/14 11:23:56;;;;;;;13.68;7.57;;;2.90;99.90;;;;;;5028890;28;20026;-50
2021/01/14 11:26:22;;;;;;;8.57;6.13;;;3.00;99.90;;;;;;5027215;28;20035;-51
2021/01/14 11:28:49;;;;;;;12.30;7.40;;;3.00;99.90;;;;;;5028175;28;20026;-50
2021/01/14 11:31:16;;;;;;;13.30;7.38;;;3.10;99.90;;;;;;5028493;28;20021;-47
2021/01/14 11:33:42;;;;;;;9.90;6.40;;;3.10;99.90;;;;;;5028154;28;20032;-51
2021/01/14 11:36:09;;;;;;;9.88;6.38;;;3.10;99.90;;;;;;5027511;28;20192;-50
2021/01/14 11:38:35;;;;;;;11.98;6.65;;;3.10;99.90;;;;;;5028079;28;20057;-48
2021/01/14 11:41:01;;;;;;;10.10;5.97;;;3.20;99.90;;;;;;5025062;28;20513;-49
2021/01/14 11:43:27;;;;;;;11.55;6.32;;;3.10;99.90;;;;;;5027885;28;20033;-50
2021/01/14 11:45:53;;;;;;;12.60;6.97;;;3.20;99.90;;;;;;5026165;28;20036;-51
2021/01/14 11:48:18;;;;;;;9.00;6.45;;;3.20;99.90;;;;;;5028577;28;20025;-50
2021/01/14 11:50:45;;;;;;;11.60;6.22;;;3.20;99.90;;;;;;5031739;28;20026;-52
2021/01/14 11:53:11;;;;;;;8.13;5.25;;;3.10;99.90;;;;;;5032177;28;20029;-48
2021/01/14 11:55:36;;;;;;;9.48;6.05;;;3.10;99.90;;;;;;5030693;28;20132;-48
2021/01/14 11:58:03;;;;;;;8.25;5.80;;;3.10;99.90;;;;;;5031763;28;20112;-48
2021/01/14 12:00:28;;;;;;;11.82;6.72;;;3.10;99.90;;;;;;5031681;28;20063;-48
2021/01/14 12:02:54;;;;;;;10.98;6.32;;;3.10;99.90;;;;;;5031421;28;20041;-49
2021/01/14 12:05:19;;;;;;;11.52;6.38;;;3.00;99.90;;;;;;5028018;28;20052;-52
2021/01/14 12:07:45;;;;;;;14.65;6.00;;;3.10;99.90;;;;;;5031579;28;20044;-48
2021/01/14 12:10:11;;;;;;;9.85;5.65;;;3.10;99.90;;;;;;5031559;28;20029;-49
2021/01/14 12:12:36;;;;;;;10.48;6.07;;;3.10;99.90;;;;;;5029950;28;20036;-51
2021/01/14 12:15:05;;;;;;;8.75;5.45;;;3.10;99.90;;;;;;5030869;28;20079;-52
2021/01/14 12:17:30;;;;;;;9.20;5.88;;;3.10;99.90;;;;;;5030997;28;20055;-51
2021/01/14 12:19:56;;;;;;;11.13;5.93;;;3.10;99.90;;;;;;5030333;28;20124;-50
2021/01/14 12:22:21;;;;;;;11.20;5.90;;;3.10;99.90;;;;;;5031214;28;20498;-50
2021/01/14 12:24:47;;;;;;;9.93;5.78;;;3.10;99.90;;;;;;5030502;28;20102;-50
2021/01/14 12:27:12;;;;;;;13.93;5.68;;;3.10;99.90;;;;;;5029553;28;20017;-52
2021/01/14 12:29:38;;;;;;;9.07;5.25;;;3.10;99.90;;;;;;5030893;28;20025;-51
2021/01/14 12:32:04;;;;;;;8.18;5.43;;;3.20;99.90;;;;;;5029030;28;20026;-51
2021/01/14 12:34:30;;;;;;;7.65;5.22;;;3.20;99.90;;;;;;5029319;28;20053;-51
2021/01/14 12:36:56;;;;;;;10.13;5.45;;;3.20;99.90;;;;;;5030368;28;20104;-51
2021/01/14 12:39:23;;;;;;;9.82;5.82;;;3.20;99.90;;;;;;5030310;28;20125;-52
2021/01/14 12:41:48;;;;;;;12.38;5.65;;;3.20;99.90;;;;;;5029513;28;20360;-52
2021/01/14 12:44:14;;;;;;;8.43;5.47;;;3.20;99.90;;;;;;5030520;28;20033;-51
2021/01/14 12:46:42;;;;;;;8.63;5.80;;;3.20;99.90;;;;;;5030081;28;20498;-51
2021/01/14 12:49:09;;;;;;;10.15;5.47;;;3.20;99.90;;;;;;5030023;28;20028;-49
2021/01/14 12:51:35;;;;;;;9.35;5.30;;;3.20;99.90;;;;;;5030054;28;20025;-51
2021/01/14 12:54:00;;;;;;;7.97;5.10;;;3.20;99.90;;;;;;5030231;28;20017;-52
2021/01/14 12:56:26;;;;;;;8.82;4.55;;;3.10;99.90;;;;;;5028524;28;20116;-52
2021/01/14 12:58:52;;;;;;;10.73;5.85;;;3.10;99.90;;;;;;5030563;28;20568;-51
2021/01/14 13:01:32;;;;;;;7.78;5.35;;;3.20;99.90;;;;;;5030176;28;20431;-50
2021/01/14 13:03:59;;;;;;;9.32;5.10;;;3.10;99.90;;;;;;5028885;28;20553;-48
2021/01/14 13:06:32;;;;;;;9.32;5.05;;;3.10;99.90;;;;;;5029229;28;20029;-51